Time;durP1;ratioP1;P1;durP2;ratioP2;P2;SDS_P1;SDS_P2;PMS_P1;PMS_P2;Temp;Humidity;BMP_temperature;BMP_pressure;BME280_temperature;BME280_humidity;BME280_pressure;Samples;Min_cycle;Max_cycle;Signal;HPM_P1;HPM_P2
2022/11/20 00:01:29;;;;;;;18.83;13.53;;;1.10;99.90;;;;;;5111453;28;20457;-68
2022/11/20 00:03:57;;;;;;;23.37;14.47;;;1.10;99.90;;;;;;5111666;28;20481;-66
2022/11/20 00:06:27;;;;;;;19.73;13.20;;;1.10;99.90;;;;;;5112361;28;20518;-67
2022/11/20 00:08:56;;;;;;;24.93;13.73;;;1.10;99.90;;;;;;5113011;28;20582;-68
2022/11/20 00:11:25;;;;;;;22.73;13.20;;;1.10;99.90;;;;;;5112754;28;20885;-66
2022/11/20 00:13:54;;;;;;;19.40;12.10;;;1.10;99.90;;;;;;5112487;28;20510;-67
2022/11/20 00:16:23;;;;;;;21.90;13.70;;;1.10;99.90;;;;;;5112801;28;20470;-68
2022/11/20 00:18:50;;;;;;;20.03;12.67;;;1.00;99.90;;;;;;5111717;28;20479;-67
2022/11/20 00:21:19;;;;;;;21.20;13.63;;;1.00;99.90;;;;;;5111861;28;20453;-68
2022/11/20 00:23:48;;;;;;;20.70;13.30;;;1.00;99.90;;;;;;5111905;28;20501;-67
2022/11/20 00:26:18;;;;;;;18.97;12.53;;;1.00;99.90;;;;;;5111559;28;20511;-67
2022/11/20 00:28:50;;;;;;;22.10;14.33;;;1.00;99.90;;;;;;5111723;28;20518;-67
2022/11/20 00:31:17;;;;;;;21.33;13.13;;;1.00;99.90;;;;;;5111619;28;20433;-67
2022/11/20 00:33:45;;;;;;;21.30;12.97;;;1.00;99.90;;;;;;5110741;28;20449;-68
2022/11/20 00:36:14;;;;;;;20.23;13.30;;;1.00;99.90;;;;;;5111104;28;20801;-67
2022/11/20 00:38:41;;;;;;;24.07;13.33;;;1.00;99.90;;;;;;5110716;28;20453;-67
2022/11/20 00:41:12;;;;;;;23.90;15.57;;;1.00;99.90;;;;;;5110562;28;20457;-66
2022/11/20 00:43:39;;;;;;;19.10;14.20;;;1.10;99.90;;;;;;5110311;28;20516;-67
2022/11/20 00:46:08;;;;;;;21.53;14.17;;;1.10;99.90;;;;;;5110795;28;20449;-67
2022/11/20 00:48:35;;;;;;;22.80;13.57;;;1.00;99.90;;;;;;5109898;28;20449;-67
2022/11/20 00:51:02;;;;;;;21.20;13.30;;;1.00;99.90;;;;;;5108112;28;20473;-67
2022/11/20 00:53:29;;;;;;;19.73;13.17;;;1.10;99.90;;;;;;5110572;28;20460;-67
2022/11/20 00:55:57;;;;;;;22.00;14.03;;;1.10;99.90;;;;;;5110819;28;20464;-68
2022/11/20 00:58:29;;;;;;;26.10;14.87;;;1.10;99.90;;;;;;5111551;28;20449;-67
2022/11/20 01:01:01;;;;;;;24.33;14.70;;;1.00;99.90;;;;;;5109943;28;20910;-67
2022/11/20 01:03:28;;;;;;;23.87;14.67;;;1.00;99.90;;;;;;5109759;28;20477;-68
2022/11/20 01:06:00;;;;;;;23.03;15.40;;;1.00;99.90;;;;;;5108449;28;20713;-67
2022/11/20 01:08:29;;;;;;;20.43;13.37;;;1.00;99.90;;;;;;5108140;28;20433;-68
2022/11/20 01:11:00;;;;;;;24.03;14.80;;;1.00;99.90;;;;;;5107899;28;20472;-68
2022/11/20 01:13:38;;;;;;;26.93;15.60;;;1.00;99.90;;;;;;5107095;28;20445;-67
2022/11/20 01:16:07;;;;;;;21.10;14.70;;;1.00;99.90;;;;;;5106722;28;20520;-68
2022/11/20 01:18:34;;;;;;;22.30;14.33;;;1.00;99.90;;;;;;5105449;28;20457;-67
2022/11/20 01:21:03;;;;;;;21.80;15.97;;;1.00;99.90;;;;;;5105992;28;20453;-67
2022/11/20 01:23:32;;;;;;;19.80;14.73;;;1.10;99.90;;;;;;5104958;28;20468;-67
2022/11/20 01:26:01;;;;;;;20.50;14.70;;;1.10;99.90;;;;;;5094877;28;20476;-66
2022/11/20 01:28:31;;;;;;;20.93;14.20;;;1.10;99.90;;;;;;5096085;28;20790;-66
2022/11/20 01:30:58;;;;;;;23.73;13.50;;;1.10;99.90;;;;;;5095246;28;20961;-67
2022/11/20 01:33:29;;;;;;;18.53;11.90;;;1.10;99.90;;;;;;5095060;28;20518;-68
2022/11/20 01:36:05;;;;;;;19.87;12.83;;;1.10;99.90;;;;;;5096141;28;20521;-66
2022/11/20 01:38:32;;;;;;;21.80;13.20;;;1.10;99.90;;;;;;5095192;28;20532;-66
2022/11/20 01:40:59;;;;;;;28.40;13.87;;;1.10;99.90;;;;;;5095255;28;20453;-66
2022/11/20 01:43:26;;;;;;;21.17;14.00;;;1.10;99.90;;;;;;5095966;28;20449;-67
2022/11/20 01:46:16;;;;;;;23.60;14.80;;;1.10;99.90;;;;;;5095266;28;20553;-68
2022/11/20 01:48:52;;;;;;;22.53;14.20;;;1.10;99.90;;;;;;5095456;28;20721;-66
2022/11/20 01:51:26;;;;;;;23.97;14.23;;;1.10;99.90;;;;;;5095377;28;20437;-66
2022/11/20 01:53:55;;;;;;;21.53;14.23;;;1.10;99.90;;;;;;5094998;28;20485;-66
2022/11/20 01:56:23;;;;;;;18.00;12.90;;;1.10;99.90;;;;;;5095087;28;20536;-67
2022/11/20 01:58:53;;;;;;;21.73;12.40;;;1.20;99.90;;;;;;5094866;28;20493;-67
2022/11/20 02:01:22;;;;;;;19.73;13.40;;;1.10;99.90;;;;;;5095176;28;20536;-68
2022/11/20 02:03:50;;;;;;;15.80;11.97;;;1.10;99.90;;;;;;5094884;28;20577;-67
2022/11/20 02:06:23;;;;;;;20.10;12.63;;;1.10;99.90;;;;;;5094864;28;20489;-67
2022/11/20 02:08:52;;;;;;;20.57;14.50;;;1.00;99.90;;;;;;5095317;28;20475;-66
2022/11/20 02:11:19;;;;;;;20.60;12.63;;;1.00;99.90;;;;;;5094605;28;20485;-67
2022/11/20 02:13:45;;;;;;;28.67;15.30;;;1.00;99.90;;;;;;5094970;28;20457;-67
2022/11/20 02:16:20;;;;;;;17.37;11.77;;;1.00;99.90;;;;;;5094734;28;20586;-66
2022/11/20 02:18:56;;;;;;;18.50;12.37;;;1.00;99.90;;;;;;5097515;28;20506;-67
2022/11/20 02:21:31;;;;;;;21.83;12.97;;;1.00;99.90;;;;;;5099096;28;20516;-67
2022/11/20 02:24:12;;;;;;;19.83;13.67;;;1.00;99.90;;;;;;5098734;28;20953;-66
2022/11/20 02:26:47;;;;;;;20.03;13.63;;;1.00;99.90;;;;;;5098539;28;20481;-67
2022/11/20 02:29:16;;;;;;;20.30;11.90;;;1.10;99.90;;;;;;5099049;28;20477;-67
2022/11/20 02:31:44;;;;;;;22.53;14.17;;;1.10;99.90;;;;;;5099033;28;20479;-65
2022/11/20 02:34:11;;;;;;;19.87;13.40;;;1.10;99.90;;;;;;5098658;28;20566;-67
2022/11/20 02:36:42;;;;;;;21.40;13.50;;;1.10;99.90;;;;;;5098952;28;20816;-67
2022/11/20 02:39:12;;;;;;;20.13;12.03;;;1.10;99.90;;;;;;5098768;28;20441;-67
2022/11/20 02:41:39;;;;;;;19.50;13.37;;;1.10;99.90;;;;;;5099238;28;20803;-66
2022/11/20 02:44:07;;;;;;;18.43;13.20;;;1.00;99.90;;;;;;5099066;28;20508;-66
2022/11/20 02:46:34;;;;;;;23.63;13.50;;;1.00;99.90;;;;;;5099300;28;20536;-66
2022/11/20 02:49:02;;;;;;;18.17;11.63;;;1.10;99.90;;;;;;5099179;28;20461;-66
2022/11/20 02:51:29;;;;;;;19.67;12.70;;;1.00;99.90;;;;;;5099412;28;20518;-67
2022/11/20 02:53:56;;;;;;;18.47;13.10;;;1.00;99.90;;;;;;5100482;28;20530;-67
2022/11/20 02:56:25;;;;;;;21.27;13.70;;;1.00;99.90;;;;;;5099586;28;20556;-66
2022/11/20 02:58:52;;;;;;;17.73;12.93;;;1.00;99.90;;;;;;5098595;28;20493;-65
2022/11/20 03:01:19;;;;;;;20.23;12.97;;;1.00;99.90;;;;;;5098171;28;20514;-66
2022/11/20 03:03:48;;;;;;;22.03;14.60;;;1.00;99.90;;;;;;5098410;28;20530;-67
2022/11/20 03:06:15;;;;;;;19.80;13.80;;;1.00;99.90;;;;;;5098945;28;20901;-66
2022/11/20 03:08:42;;;;;;;20.10;13.77;;;1.00;99.90;;;;;;5098334;28;20949;-66
2022/11/20 03:11:10;;;;;;;18.70;14.30;;;1.00;99.90;;;;;;5098986;28;20518;-66
2022/11/20 03:13:38;;;;;;;20.97;13.57;;;1.00;99.90;;;;;;5098851;28;20452;-66
2022/11/20 03:16:11;;;;;;;21.80;13.47;;;1.00;99.90;;;;;;5099171;28;20488;-67
2022/11/20 03:18:38;;;;;;;23.30;14.23;;;1.00;99.90;;;;;;5098741;28;20461;-67
2022/11/20 03:21:05;;;;;;;21.57;14.77;;;1.00;99.90;;;;;;5098496;28;20534;-66
2022/11/20 03:23:33;;;;;;;17.77;13.80;;;1.00;99.90;;;;;;5098610;28;20481;-66
2022/11/20 03:26:16;;;;;;;22.37;14.93;;;1.00;99.90;;;;;;5098039;28;20572;-66
2022/11/20 03:28:48;;;;;;;22.00;13.87;;;1.00;99.90;;;;;;5098079;28;20543;-66
2022/11/20 03:31:18;;;;;;;19.53;14.30;;;1.00;99.90;;;;;;5098238;28;20490;-66
2022/11/20 03:33:45;;;;;;;20.10;16.00;;;1.00;99.90;;;;;;5098938;28;20485;-67
2022/11/20 03:36:14;;;;;;;24.97;17.40;;;1.00;99.90;;;;;;5099488;28;20457;-67
2022/11/20 03:38:42;;;;;;;26.67;18.40;;;0.90;99.90;;;;;;5098267;28;20457;-67
2022/11/20 03:41:10;;;;;;;27.97;17.37;;;0.90;99.90;;;;;;5098105;28;20495;-66
2022/11/20 03:43:37;;;;;;;25.93;16.63;;;0.90;99.90;;;;;;5097567;28;20538;-67
2022/11/20 03:46:07;;;;;;;24.90;16.80;;;0.90;99.90;;;;;;5097829;28;20564;-66
2022/11/20 03:48:34;;;;;;;28.53;17.00;;;0.90;99.90;;;;;;5098966;28;20504;-67
2022/11/20 03:51:09;;;;;;;32.30;17.80;;;0.90;99.90;;;;;;5099079;28;20902;-66
2022/11/20 03:53:36;;;;;;;26.60;17.30;;;0.90;99.90;;;;;;5098271;28;20510;-66
2022/11/20 03:56:04;;;;;;;23.83;16.50;;;0.90;99.90;;;;;;5097993;28;20473;-67
2022/11/20 03:58:31;;;;;;;24.20;15.83;;;0.90;99.90;;;;;;5097885;28;20457;-67
2022/11/20 04:00:58;;;;;;;23.60;14.90;;;0.90;99.90;;;;;;5098039;28;20787;-66
2022/11/20 04:03:26;;;;;;;23.97;15.57;;;0.90;99.90;;;;;;5097948;28;20457;-66
2022/11/20 04:05:53;;;;;;;24.10;15.50;;;0.90;99.90;;;;;;5097823;28;20536;-66
2022/11/20 04:08:20;;;;;;;22.70;14.90;;;0.90;99.90;;;;;;5097624;28;20457;-66
2022/11/20 04:10:47;;;;;;;22.83;13.60;;;0.90;99.90;;;;;;5097746;28;20541;-66
2022/11/20 04:13:14;;;;;;;17.53;12.87;;;0.90;99.90;;;;;;5097325;28;20563;-65
2022/11/20 04:15:41;;;;;;;21.37;14.27;;;0.90;99.90;;;;;;5097557;28;20522;-66
2022/11/20 04:18:08;;;;;;;22.60;14.47;;;1.00;99.90;;;;;;5098432;28;20489;-66
2022/11/20 04:20:36;;;;;;;21.00;13.30;;;1.00;99.90;;;;;;5098084;28;20457;-66
2022/11/20 04:23:03;;;;;;;22.43;14.10;;;1.00;99.90;;;;;;5098298;28;20510;-66
2022/11/20 04:25:30;;;;;;;19.63;13.20;;;1.00;99.90;;;;;;5098316;28;20813;-66
2022/11/20 04:27:57;;;;;;;24.53;14.70;;;1.00;99.90;;;;;;5098567;28;20476;-66
2022/11/20 04:30:24;;;;;;;21.63;14.80;;;0.90;99.90;;;;;;5099418;28;20839;-65
2022/11/20 04:32:51;;;;;;;21.37;15.03;;;0.90;99.90;;;;;;5098893;28;20518;-67
2022/11/20 04:35:18;;;;;;;23.30;14.87;;;0.90;99.90;;;;;;5097646;28;20492;-66
2022/11/20 04:37:46;;;;;;;22.40;14.63;;;0.90;99.90;;;;;;5097383;28;20501;-66
2022/11/20 04:40:13;;;;;;;17.47;13.53;;;0.90;99.90;;;;;;5097375;28;20488;-66
2022/11/20 04:42:40;;;;;;;23.30;14.20;;;0.90;99.90;;;;;;5097075;28;20536;-65
2022/11/20 04:45:08;;;;;;;20.40;14.57;;;0.90;99.90;;;;;;5097387;28;20568;-66
2022/11/20 04:47:34;;;;;;;19.33;13.50;;;0.90;99.90;;;;;;5096794;28;20984;-66
2022/11/20 04:50:01;;;;;;;26.10;14.80;;;0.90;99.90;;;;;;5096866;28;20457;-65
2022/11/20 04:52:28;;;;;;;19.30;14.53;;;0.90;99.90;;;;;;5096769;28;20460;-66
2022/11/20 04:54:57;;;;;;;19.97;13.93;;;0.90;99.90;;;;;;5096674;28;20506;-66
2022/11/20 04:57:24;;;;;;;22.13;14.90;;;0.90;99.90;;;;;;5097306;28;20477;-65
2022/11/20 04:59:50;;;;;;;18.27;12.73;;;0.90;99.90;;;;;;5097296;28;20449;-65
2022/11/20 05:02:17;;;;;;;23.07;14.53;;;1.00;99.90;;;;;;5097008;28;20796;-65
2022/11/20 05:04:44;;;;;;;22.10;13.17;;;0.90;99.90;;;;;;5097138;28;20851;-65
2022/11/20 05:07:11;;;;;;;20.00;13.70;;;0.90;99.90;;;;;;5096382;28;20754;-66
2022/11/20 05:09:38;;;;;;;21.67;14.10;;;0.90;99.90;;;;;;5097036;28;20544;-66
2022/11/20 05:12:08;;;;;;;19.93;13.73;;;0.90;99.90;;;;;;5096450;28;20552;-66
2022/11/20 05:14:35;;;;;;;22.23;13.33;;;0.90;99.90;;;;;;5096902;28;20492;-65
2022/11/20 05:17:02;;;;;;;22.40;13.30;;;0.90;99.90;;;;;;5096348;28;20457;-65
2022/11/20 05:19:29;;;;;;;21.97;13.53;;;0.90;99.90;;;;;;5096589;28;20484;-66
2022/11/20 05:21:56;;;;;;;19.67;13.80;;;0.90;99.90;;;;;;5096558;28;20978;-66
2022/11/20 05:24:23;;;;;;;20.63;13.97;;;0.90;99.90;;;;;;5096602;28;20496;-65
2022/11/20 05:26:50;;;;;;;19.40;13.37;;;0.90;99.90;;;;;;5096206;28;20576;-64
2022/11/20 05:29:18;;;;;;;19.67;13.10;;;0.90;99.90;;;;;;5096411;28;20514;-65
2022/11/20 05:31:45;;;;;;;25.33;14.33;;;0.90;99.90;;;;;;5096034;28;20457;-66
2022/11/20 05:34:12;;;;;;;21.97;14.93;;;0.90;99.90;;;;;;5096311;28;20850;-65
2022/11/20 05:36:39;;;;;;;19.97;12.93;;;0.90;99.90;;;;;;5096091;28;20457;-65
2022/11/20 05:39:06;;;;;;;20.97;13.30;;;0.90;99.90;;;;;;5096293;28;20484;-66
2022/11/20 05:41:34;;;;;;;19.57;13.77;;;1.00;99.90;;;;;;5095413;28;20457;-66
2022/11/20 05:44:01;;;;;;;22.37;13.73;;;1.00;99.90;;;;;;5095805;28;20496;-66
2022/11/20 05:46:29;;;;;;;22.93;13.77;;;1.00;99.90;;;;;;5095349;28;21048;-66
2022/11/20 05:48:57;;;;;;;20.90;14.70;;;1.00;99.90;;;;;;5095523;28;20491;-67
2022/11/20 05:51:24;;;;;;;21.20;13.10;;;1.00;99.90;;;;;;5095249;28;20522;-66
2022/11/20 05:53:51;;;;;;;22.27;14.57;;;1.00;99.90;;;;;;5094866;28;20945;-65
2022/11/20 05:56:20;;;;;;;20.53;14.73;;;1.00;99.90;;;;;;5095515;28;20516;-66
2022/11/20 05:58:48;;;;;;;21.20;13.90;;;1.00;99.90;;;;;;5095936;28;20935;-65
2022/11/20 06:01:17;;;;;;;22.93;14.17;;;1.00;99.90;;;;;;5095931;28;20783;-66
2022/11/20 06:03:47;;;;;;;20.17;13.80;;;1.00;99.90;;;;;;5095534;28;20794;-65
2022/11/20 06:06:14;;;;;;;21.50;13.90;;;1.00;99.90;;;;;;5095779;28;20473;-67
2022/11/20 06:08:41;;;;;;;18.37;13.20;;;1.10;99.90;;;;;;5095106;28;20544;-66
2022/11/20 06:11:11;;;;;;;22.70;13.10;;;1.10;99.90;;;;;;5095631;28;20481;-66
2022/11/20 06:13:38;;;;;;;20.70;13.80;;;1.10;99.90;;;;;;5095357;28;20489;-66
2022/11/20 06:16:05;;;;;;;22.50;13.63;;;1.10;99.90;;;;;;5095615;28;20453;-65
2022/11/20 06:18:33;;;;;;;22.20;13.77;;;1.10;99.90;;;;;;5095420;28;20767;-68
2022/11/20 06:21:07;;;;;;;17.20;13.07;;;1.10;99.90;;;;;;5095115;28;21043;-66
2022/11/20 06:23:35;;;;;;;19.77;13.30;;;1.10;99.90;;;;;;5095014;28;20437;-67
2022/11/20 06:26:04;;;;;;;19.10;12.50;;;1.10;99.90;;;;;;5094710;28;20521;-66
2022/11/20 06:28:31;;;;;;;19.43;12.90;;;1.20;99.90;;;;;;5095228;28;20453;-66
2022/11/20 06:30:58;;;;;;;21.53;14.33;;;1.20;99.90;;;;;;5095623;28;20532;-66
2022/11/20 06:33:25;;;;;;;28.10;16.97;;;1.10;99.90;;;;;;5095065;28;20478;-66
2022/11/20 06:35:52;;;;;;;19.60;14.40;;;1.20;99.90;;;;;;5094948;28;20491;-66
2022/11/20 06:38:20;;;;;;;21.03;13.50;;;1.20;99.90;;;;;;5095680;28;20461;-65
2022/11/20 06:40:47;;;;;;;20.00;13.03;;;1.20;99.90;;;;;;5097016;28;20514;-66
2022/11/20 06:43:14;;;;;;;20.93;13.20;;;1.20;99.90;;;;;;5096268;28;20553;-66
2022/11/20 06:45:42;;;;;;;21.60;13.47;;;1.20;99.90;;;;;;5095346;28;20473;-64
2022/11/20 06:48:09;;;;;;;19.10;13.27;;;1.20;99.90;;;;;;5094865;28;20929;-67
2022/11/20 06:50:37;;;;;;;20.20;13.47;;;1.20;99.90;;;;;;5095151;28;20457;-66
2022/11/20 06:53:05;;;;;;;22.90;13.10;;;1.20;99.90;;;;;;5095045;28;20544;-67
2022/11/20 06:55:33;;;;;;;22.67;14.53;;;1.10;99.90;;;;;;5094894;28;20481;-65
2022/11/20 06:58:00;;;;;;;20.20;12.40;;;1.10;99.90;;;;;;5095013;28;20449;-66
2022/11/20 07:00:27;;;;;;;17.53;11.97;;;1.10;99.90;;;;;;5094761;28;20548;-66
2022/11/20 07:02:54;;;;;;;20.00;13.60;;;1.10;99.90;;;;;;5094964;28;20526;-66
2022/11/20 07:05:21;;;;;;;21.23;13.93;;;1.10;99.90;;;;;;5096900;28;20499;-66
2022/11/20 07:07:48;;;;;;;20.23;14.13;;;1.10;99.90;;;;;;5098529;28;20529;-67
2022/11/20 07:10:15;;;;;;;21.63;14.03;;;1.10;99.90;;;;;;5098308;28;20905;-66
2022/11/20 07:12:49;;;;;;;19.50;12.90;;;1.10;99.90;;;;;;5098361;28;20495;-66
2022/11/20 07:15:16;;;;;;;21.17;13.67;;;1.10;99.90;;;;;;5098217;28;20862;-66
2022/11/20 07:17:43;;;;;;;25.33;14.27;;;1.10;99.90;;;;;;5098178;28;20921;-66
2022/11/20 07:20:11;;;;;;;23.60;14.90;;;1.10;99.90;;;;;;5098430;28;20913;-65
2022/11/20 07:22:38;;;;;;;23.30;16.10;;;1.10;99.90;;;;;;5098079;28;20458;-65
2022/11/20 07:25:06;;;;;;;21.93;14.00;;;1.20;99.90;;;;;;5098624;28;20583;-65
2022/11/20 07:27:33;;;;;;;21.10;13.50;;;1.10;99.90;;;;;;5098682;28;20516;-66
2022/11/20 07:30:01;;;;;;;22.10;14.27;;;1.10;99.90;;;;;;5098136;28;20485;-66
2022/11/20 07:32:28;;;;;;;22.20;14.37;;;1.10;99.90;;;;;;5099256;28;20457;-66
2022/11/20 07:34:55;;;;;;;22.13;12.83;;;1.10;99.90;;;;;;5098009;28;20586;-66
2022/11/20 07:37:22;;;;;;;22.10;14.53;;;1.10;99.90;;;;;;5098584;28;20525;-66
2022/11/20 07:39:49;;;;;;;20.27;13.27;;;1.10;99.90;;;;;;5098147;28;20548;-66
2022/11/20 07:42:16;;;;;;;22.33;15.10;;;1.10;99.90;;;;;;5098277;28;20518;-67
2022/11/20 07:44:43;;;;;;;19.07;13.30;;;1.10;99.90;;;;;;5098443;28;20493;-66
2022/11/20 07:47:11;;;;;;;22.70;14.67;;;1.10;99.90;;;;;;5097865;28;20504;-66
2022/11/20 07:49:38;;;;;;;20.83;13.83;;;1.10;99.90;;;;;;5097755;28;20508;-66
2022/11/20 07:52:05;;;;;;;23.60;15.27;;;1.10;99.90;;;;;;5098077;28;20536;-65
2022/11/20 07:54:32;;;;;;;19.03;14.43;;;1.10;99.90;;;;;;5098568;28;20453;-65
2022/11/20 07:56:59;;;;;;;20.83;14.43;;;1.10;99.90;;;;;;5097541;28;20485;-66
2022/11/20 07:59:26;;;;;;;19.73;15.27;;;1.00;99.90;;;;;;5097912;28;20523;-66
2022/11/20 08:01:53;;;;;;;21.90;14.10;;;1.00;99.90;;;;;;5098445;28;20480;-65
2022/11/20 08:04:21;;;;;;;24.80;15.03;;;1.00;99.90;;;;;;5098068;28;20833;-66
2022/11/20 08:06:48;;;;;;;22.30;15.23;;;1.00;99.90;;;;;;5097940;28;20534;-67
2022/11/20 08:09:15;;;;;;;21.57;14.17;;;1.00;99.90;;;;;;5097462;28;20785;-67
2022/11/20 08:14:27;;;;;;;21.67;14.87;;;0.90;99.90;;;;;;5098008;28;20487;-65
2022/11/20 08:16:54;;;;;;;22.97;15.13;;;0.90;99.90;;;;;;5097707;28;20449;-66
2022/11/20 08:19:22;;;;;;;21.57;14.47;;;0.90;99.90;;;;;;5098184;28;20514;-66
2022/11/20 08:21:49;;;;;;;20.80;14.17;;;0.90;99.90;;;;;;5098359;28;20479;-65
2022/11/20 08:24:16;;;;;;;21.80;14.97;;;0.80;99.90;;;;;;5097430;28;20453;-66
2022/11/20 08:26:44;;;;;;;23.33;14.53;;;0.90;99.90;;;;;;5097464;28;20576;-65
2022/11/20 08:29:10;;;;;;;20.43;14.63;;;0.90;99.90;;;;;;5097142;28;20489;-66
2022/11/20 08:31:37;;;;;;;21.50;13.90;;;0.90;99.90;;;;;;5098289;28;20552;-65
2022/11/20 08:34:04;;;;;;;22.53;14.43;;;0.90;99.90;;;;;;5098025;28;20529;-66
2022/11/20 08:36:34;;;;;;;20.63;12.90;;;0.90;99.90;;;;;;5097357;28;20514;-66
2022/11/20 08:39:01;;;;;;;22.80;14.90;;;0.90;99.90;;;;;;5097579;28;20488;-66
2022/11/20 08:41:32;;;;;;;17.00;12.60;;;0.90;99.90;;;;;;5096963;28;20792;-66
2022/11/20 08:44:01;;;;;;;20.43;13.93;;;0.90;99.90;;;;;;5097078;28;20433;-67
2022/11/20 08:46:32;;;;;;;22.67;15.30;;;0.80;99.90;;;;;;5096906;28;21025;-66
2022/11/20 08:48:59;;;;;;;22.57;15.03;;;0.90;99.90;;;;;;5097011;28;20815;-66
2022/11/20 08:51:26;;;;;;;22.37;14.07;;;0.90;99.90;;;;;;5097314;28;20500;-66
2022/11/20 08:53:55;;;;;;;32.17;16.47;;;0.90;99.90;;;;;;5096911;28;20534;-66
2022/11/20 08:56:21;;;;;;;21.60;14.47;;;0.90;99.90;;;;;;5095932;28;20449;-65
2022/11/20 08:58:50;;;;;;;24.90;14.67;;;0.90;99.90;;;;;;5095772;28;20984;-65
2022/11/20 09:01:17;;;;;;;21.90;15.77;;;1.00;99.90;;;;;;5096486;28;20492;-67
2022/11/20 09:03:44;;;;;;;22.87;14.73;;;1.00;99.90;;;;;;5096359;28;20457;-66
2022/11/20 09:06:11;;;;;;;26.93;15.07;;;1.00;99.90;;;;;;5096632;28;20491;-65
2022/11/20 09:08:38;;;;;;;21.33;14.77;;;1.10;99.90;;;;;;5095823;28;20544;-67
2022/11/20 09:11:07;;;;;;;23.17;14.47;;;1.10;99.90;;;;;;5096246;28;20483;-65
2022/11/20 09:13:36;;;;;;;20.13;13.80;;;1.10;99.90;;;;;;5096702;28;20544;-66
2022/11/20 09:16:05;;;;;;;25.57;15.53;;;1.10;99.90;;;;;;5096411;28;20834;-66
2022/11/20 09:18:33;;;;;;;24.47;15.03;;;1.00;99.90;;;;;;5096332;28;20554;-66
2022/11/20 09:21:01;;;;;;;26.50;15.57;;;1.00;99.90;;;;;;5096079;28;20548;-66
2022/11/20 09:23:32;;;;;;;19.40;14.30;;;1.00;99.90;;;;;;5096173;28;20536;-66
2022/11/20 09:26:02;;;;;;;22.60;15.30;;;1.00;99.90;;;;;;5095623;28;20980;-66
2022/11/20 09:28:30;;;;;;;28.23;16.70;;;1.00;99.90;;;;;;5094613;28;21001;-65
2022/11/20 09:30:57;;;;;;;23.27;15.57;;;1.00;99.90;;;;;;5096310;28;20918;-66
2022/11/20 09:33:24;;;;;;;22.00;13.87;;;1.00;99.90;;;;;;5097206;28;20492;-67
2022/11/20 09:35:51;;;;;;;21.90;14.20;;;1.10;99.90;;;;;;5096575;28;20483;-66
2022/11/20 09:38:19;;;;;;;26.30;14.30;;;1.10;99.90;;;;;;5096111;28;20458;-66
2022/11/20 09:40:52;;;;;;;19.97;14.33;;;1.10;99.90;;;;;;5095925;28;20489;-66
2022/11/20 09:43:26;;;;;;;20.93;14.23;;;1.20;99.90;;;;;;5096024;28;20528;-66
2022/11/20 09:46:05;;;;;;;21.17;15.13;;;1.20;99.90;;;;;;5095837;28;20437;-66
2022/11/20 09:48:56;;;;;;;21.77;13.83;;;1.20;99.90;;;;;;5095841;28;20915;-65
2022/11/20 09:51:32;;;;;;;22.77;14.10;;;1.20;99.90;;;;;;5095859;28;20433;-66
2022/11/20 09:54:14;;;;;;;21.63;15.50;;;1.30;99.90;;;;;;5096764;28;20524;-67
2022/11/20 09:56:44;;;;;;;23.03;15.07;;;1.30;99.90;;;;;;5095886;28;20483;-67
2022/11/20 09:59:21;;;;;;;22.20;13.77;;;1.30;99.90;;;;;;5095448;28;20453;-66
2022/11/20 10:01:49;;;;;;;21.20;14.27;;;1.40;99.90;;;;;;5096244;28;20505;-66
2022/11/20 10:04:19;;;;;;;21.43;14.33;;;1.40;99.90;;;;;;5095744;28;20461;-66
2022/11/20 10:06:52;;;;;;;21.40;14.53;;;1.40;99.90;;;;;;5096241;28;20781;-66
2022/11/20 10:09:26;;;;;;;24.43;14.67;;;1.50;99.90;;;;;;5096321;28;20441;-66
2022/11/20 10:12:06;;;;;;;20.87;15.40;;;1.50;99.90;;;;;;5096016;28;20449;-67
2022/11/20 10:14:48;;;;;;;22.00;14.97;;;1.50;99.90;;;;;;5095349;28;20483;-68
2022/11/20 10:17:30;;;;;;;20.77;13.57;;;1.60;99.90;;;;;;5095467;28;20491;-66
2022/11/20 10:20:12;;;;;;;18.60;14.33;;;1.50;99.90;;;;;;5094856;28;20523;-66
2022/11/20 10:22:49;;;;;;;20.53;13.53;;;1.60;99.90;;;;;;5095098;28;20531;-66
2022/11/20 10:25:19;;;;;;;22.20;13.77;;;1.60;99.90;;;;;;5095349;28;20477;-67
2022/11/20 10:28:08;;;;;;;26.53;14.40;;;1.50;99.90;;;;;;5094894;28;20465;-66
2022/11/20 10:30:38;;;;;;;21.47;14.60;;;1.50;99.90;;;;;;5085508;28;20500;-66
2022/11/20 10:33:14;;;;;;;19.23;13.67;;;1.50;99.90;;;;;;5094604;28;20514;-67
2022/11/20 10:35:45;;;;;;;21.60;13.23;;;1.50;99.90;;;;;;5095574;28;20520;-67
2022/11/20 10:38:18;;;;;;;22.97;14.57;;;1.40;99.90;;;;;;5094483;28;20468;-66
2022/11/20 10:40:49;;;;;;;24.37;14.00;;;1.40;99.90;;;;;;5098507;28;20487;-67
2022/11/20 10:43:20;;;;;;;20.13;13.50;;;1.50;99.90;;;;;;5099220;28;20986;-67
2022/11/20 10:45:52;;;;;;;22.17;14.30;;;1.50;99.90;;;;;;5099331;28;20516;-66
2022/11/20 10:48:23;;;;;;;26.07;14.63;;;1.60;99.90;;;;;;5099652;28;20848;-66
2022/11/20 10:51:08;;;;;;;21.30;14.40;;;1.70;99.90;;;;;;5099696;28;20515;-66
2022/11/20 10:53:46;;;;;;;21.23;14.10;;;1.70;99.90;;;;;;5099465;28;20502;-67
2022/11/20 10:56:20;;;;;;;19.97;13.77;;;1.80;99.90;;;;;;5098696;28;20445;-66
2022/11/20 10:58:56;;;;;;;19.53;13.07;;;1.90;99.90;;;;;;5099022;28;20808;-66
2022/11/20 11:01:23;;;;;;;20.80;14.60;;;2.00;99.90;;;;;;5098473;28;20873;-66
2022/11/20 11:03:53;;;;;;;19.13;13.53;;;2.10;99.90;;;;;;5098643;28;20567;-66
2022/11/20 11:06:30;;;;;;;20.10;12.67;;;2.30;99.90;;;;;;5098250;28;20499;-66
2022/11/20 11:09:00;;;;;;;17.37;13.03;;;2.40;99.90;;;;;;5097855;28;20498;-67
2022/11/20 11:11:30;;;;;;;19.40;12.67;;;2.60;99.90;;;;;;5098935;28;20541;-67
2022/11/20 11:14:06;;;;;;;17.77;12.67;;;2.60;99.90;;;;;;5098633;28;20535;-67
2022/11/20 11:16:33;;;;;;;20.90;13.30;;;2.60;99.90;;;;;;5098043;28;20441;-66
2022/11/20 11:19:13;;;;;;;18.93;12.03;;;2.50;99.90;;;;;;5097938;28;20518;-70
2022/11/20 11:21:46;;;;;;;20.33;12.33;;;2.40;99.90;;;;;;5098798;28;20449;-67
2022/11/20 11:24:25;;;;;;;19.60;13.70;;;2.30;99.90;;;;;;5098058;28;20913;-67
2022/11/20 11:26:55;;;;;;;18.73;13.80;;;2.20;99.90;;;;;;5097596;28;20481;-66
2022/11/20 11:29:23;;;;;;;17.13;13.37;;;2.10;99.90;;;;;;5097996;28;20539;-67
2022/11/20 11:31:50;;;;;;;18.50;13.60;;;2.10;99.90;;;;;;5097604;28;20468;-68
2022/11/20 11:34:19;;;;;;;16.90;12.20;;;2.10;99.90;;;;;;5098075;28;20453;-67
2022/11/20 11:36:57;;;;;;;16.70;12.03;;;2.10;99.90;;;;;;5097249;28;20454;-66
2022/11/20 11:39:26;;;;;;;18.13;12.20;;;2.20;99.90;;;;;;5097756;28;20437;-66
2022/11/20 11:41:53;;;;;;;20.30;12.27;;;2.10;99.90;;;;;;5098578;28;20495;-66
2022/11/20 11:47:12;;;;;;;17.67;11.20;;;2.10;99.90;;;;;;5097709;28;20463;-66
2022/11/20 11:49:41;;;;;;;15.90;12.70;;;2.10;99.90;;;;;;5097474;28;20513;-66
2022/11/20 11:52:14;;;;;;;21.10;12.63;;;2.10;99.90;;;;;;5097332;28;20449;-66
2022/11/20 11:54:48;;;;;;;15.50;11.50;;;2.10;99.90;;;;;;5097592;28;20442;-65
2022/11/20 11:57:24;;;;;;;16.30;11.67;;;2.10;99.90;;;;;;5097400;28;20473;-66
2022/11/20 12:00:02;;;;;;;14.93;11.03;;;2.10;99.90;;;;;;5098098;28;20549;-66
2022/11/20 12:02:37;;;;;;;14.47;10.93;;;2.00;99.90;;;;;;5097575;28;20543;-66
2022/11/20 12:05:16;;;;;;;15.67;11.50;;;1.90;99.90;;;;;;5097672;28;20444;-66
2022/11/20 12:07:46;;;;;;;16.77;11.37;;;1.80;99.90;;;;;;5097594;28;20497;-66
2022/11/20 12:10:19;;;;;;;18.77;12.10;;;1.70;99.90;;;;;;5097703;28;20550;-66
2022/11/20 12:12:52;;;;;;;16.70;11.40;;;1.70;99.90;;;;;;5097429;28;20496;-66
2022/11/20 12:15:29;;;;;;;20.67;11.73;;;1.70;99.90;;;;;;5096538;28;20449;-66
2022/11/20 12:17:56;;;;;;;17.50;11.63;;;1.70;99.90;;;;;;5096734;28;20518;-66
2022/11/20 12:20:29;;;;;;;16.50;11.93;;;1.70;99.90;;;;;;5097091;28;20449;-67
2022/11/20 12:23:05;;;;;;;15.97;12.00;;;1.70;99.90;;;;;;5097547;28;20844;-66
2022/11/20 12:25:36;;;;;;;16.80;11.40;;;1.70;99.90;;;;;;5096694;28;21027;-65
2022/11/20 12:28:20;;;;;;;13.27;10.53;;;1.80;99.90;;;;;;5097389;28;20552;-66
2022/11/20 12:30:59;;;;;;;20.73;11.83;;;1.80;99.90;;;;;;5098643;28;20475;-66
2022/11/20 12:33:41;;;;;;;15.73;10.90;;;1.80;99.90;;;;;;5096891;28;20709;-66
2022/11/20 12:36:20;;;;;;;15.47;11.10;;;1.90;99.90;;;;;;5096454;28;20445;-65
2022/11/20 12:39:11;;;;;;;17.90;10.83;;;2.00;99.90;;;;;;5096657;28;20476;-65
2022/11/20 12:45:15;;;;;;;13.77;9.70;;;2.20;99.90;;;;;;5097178;28;20737;-67
2022/11/20 12:48:11;;;;;;;12.80;10.20;;;2.20;99.90;;;;;;5096001;28;20497;-65
2022/11/20 12:50:48;;;;;;;12.77;9.30;;;2.20;99.90;;;;;;5095912;28;20920;-66
2022/11/20 12:53:29;;;;;;;14.07;10.60;;;2.40;99.90;;;;;;5095746;28;20463;-65
2022/11/20 12:56:06;;;;;;;14.83;9.90;;;3.00;99.90;;;;;;5095839;28;20452;-66
2022/11/20 12:58:41;;;;;;;17.10;10.03;;;3.70;99.90;;;;;;5095599;28;20487;-66
2022/11/20 13:01:42;;;;;;;11.03;8.73;;;4.40;99.90;;;;;;5095658;28;20522;-66